Terminal Aerodrome Forecast
Issued by NWS

Home | Current Version | Previous Version | Text Only | Print | Product List | Glossary On
Versions: 1 2 3 4 5 6 7 8 9 10 11 12 13 14 15 16 17 18 19 20
000
FTUS45 KBOU 242109 AAB
TAFAPA
TAF AMD
KAPA 242109Z 2421/2518 27007KT P6SM VCSH BKN090 OVC200
     FM250000 19007KT P6SM SCT080 BKN120
     FM250600 18005KT P6SM BKN200=

USA.gov is the U.S. government's official web portal to all federal, state and local government web resources and services.